Time;durP1;ratioP1;P1;durP2;ratioP2;P2;SDS_P1;SDS_P2;PMS_P1;PMS_P2;Temp;Humidity;BMP_temperature;BMP_pressure;BME280_temperature;BME280_humidity;BME280_pressure;Samples;Min_cycle;Max_cycle;Signal;HPM_P1;HPM_P2
2021/11/09 00:00:40;;;;;;;12.43;6.72;;;;;;;;;;6178972;23;20381;-64
2021/11/09 00:03:09;;;;;;;13.52;5.75;;;;;;;;;;6183076;23;20009;-64
2021/11/09 00:08:42;;;;;;;16.75;5.95;;;;;;;;;;6183764;23;20009;-64
2021/11/09 00:11:09;;;;;;;;;;;;;;;;;;6180422;23;20141;-64
2021/11/09 00:13:34;;;;;;;10.68;6.15;;;;;;;;;;6182504;23;19912;-64
2021/11/09 00:16:00;;;;;;;13.00;6.20;;;;;;;;;;6181660;23;20032;-64
2021/11/09 00:18:27;;;;;;;17.70;6.65;;;;;;;;;;6179541;23;20395;-64
2021/11/09 00:20:53;;;;;;;13.35;5.50;;;;;;;;;;6182308;23;20024;-64
2021/11/09 00:23:18;;;;;;;15.85;6.07;;;;;;;;;;6179970;23;20067;-64
2021/11/09 00:25:44;;;;;;;20.33;6.20;;;;;;;;;;6181832;23;20004;-64
2021/11/09 00:28:11;;;;;;;15.05;5.88;;;;;;;;;;6181137;23;20340;-64
2021/11/09 00:30:37;;;;;;;16.00;5.93;;;;;;;;;;6180403;23;20123;-64
2021/11/09 00:33:05;;;;;;;14.98;6.10;;;;;;;;;;6180313;23;20020;-64
2021/11/09 00:35:32;;;;;;;14.13;5.45;;;;;;;;;;6181323;23;20269;-64
2021/11/09 00:38:00;;;;;;;17.55;5.53;;;;;;;;;;6155931;23;20001;-64
2021/11/09 00:40:28;;;;;;;18.15;5.97;;;;;;;;;;6177548;23;20080;-64
2021/11/09 00:42:55;;;;;;;12.15;5.43;;;;;;;;;;6182530;23;20427;-64
2021/11/09 00:45:22;;;;;;;11.93;5.40;;;;;;;;;;6182227;23;20009;-64
2021/11/09 00:47:48;;;;;;;12.50;5.20;;;;;;;;;;6181728;23;20485;-64
2021/11/09 00:50:16;;;;;;;14.05;5.55;;;;;;;;;;6181711;23;20008;-64
2021/11/09 00:52:43;;;;;;;15.38;5.55;;;;;;;;;;6181914;23;20106;-64
2021/11/09 00:55:12;;;;;;;13.57;5.60;;;;;;;;;;6179991;23;20084;-64
2021/11/09 00:57:43;;;;;;;18.02;6.15;;;;;;;;;;6179032;23;20009;-64
2021/11/09 01:00:13;;;;;;;13.18;5.85;;;;;;;;;;6179609;23;20029;-64
2021/11/09 01:02:42;;;;;;;15.50;5.65;;;;;;;;;;6179004;23;20076;-64
2021/11/09 01:05:10;;;;;;;11.98;6.10;;;;;;;;;;6180621;23;20285;-64
2021/11/09 01:07:41;;;;;;;16.83;5.80;;;;;;;;;;6181084;23;20494;-64
2021/11/09 01:10:08;;;;;;;12.73;5.72;;;;;;;;;;6180969;23;20083;-64
2021/11/09 01:12:43;;;;;;;11.38;5.95;;;;;;;;;;6179762;23;20083;-64
2021/11/09 01:15:09;;;;;;;15.13;6.03;;;;;;;;;;6182325;23;20001;-64
2021/11/09 01:17:43;;;;;;;14.50;5.97;;;;;;;;;;6179119;23;20379;-64
2021/11/09 01:20:13;;;;;;;16.80;6.53;;;;;;;;;;6179251;23;20036;-64
2021/11/09 01:22:39;;;;;;;12.27;5.63;;;;;;;;;;6182699;23;20029;-64
2021/11/09 01:25:06;;;;;;;13.65;5.57;;;;;;;;;;6179692;23;20005;-64
2021/11/09 01:27:32;;;;;;;13.55;5.72;;;;;;;;;;6181299;23;20040;-64
2021/11/09 01:29:58;;;;;;;16.17;6.10;;;;;;;;;;6180870;23;20005;-64
2021/11/09 01:32:29;;;;;;;13.70;5.88;;;;;;;;;;6180441;23;20028;-64
2021/11/09 01:34:54;;;;;;;14.57;5.97;;;;;;;;;;6180929;23;20370;-64
2021/11/09 01:37:29;;;;;;;15.40;5.65;;;;;;;;;;6181682;23;20087;-64
2021/11/09 01:39:55;;;;;;;10.75;5.65;;;;;;;;;;6178886;23;20048;-65
2021/11/09 01:42:30;;;;;;;16.45;5.75;;;;;;;;;;6179786;23;20071;-64
2021/11/09 01:44:55;;;;;;;15.45;5.47;;;;;;;;;;6181394;23;20028;-64
2021/11/09 01:47:29;;;;;;;15.48;6.15;;;;;;;;;;6181779;23;20005;-64
2021/11/09 01:49:55;;;;;;;12.80;5.43;;;;;;;;;;6177901;23;20056;-64
2021/11/09 01:52:21;;;;;;;13.27;6.18;;;;;;;;;;6180214;23;20371;-64
2021/11/09 01:54:47;;;;;;;11.75;5.78;;;;;;;;;;6178895;23;20013;-64
2021/11/09 01:57:12;;;;;;;15.35;5.68;;;;;;;;;;6180918;23;20308;-64
2021/11/09 01:59:38;;;;;;;13.55;5.93;;;;;;;;;;6181630;23;20012;-64
2021/11/09 02:02:05;;;;;;;11.63;5.80;;;;;;;;;;6181091;23;20001;-64
2021/11/09 02:04:30;;;;;;;18.58;6.15;;;;;;;;;;6182485;23;20005;-64
2021/11/09 02:06:56;;;;;;;13.80;5.95;;;;;;;;;;6182771;23;20415;-64
2021/11/09 02:09:21;;;;;;;16.23;5.63;;;;;;;;;;6181946;23;20561;-64
2021/11/09 02:11:48;;;;;;;14.57;5.80;;;;;;;;;;6183130;23;20080;-64
2021/11/09 02:14:15;;;;;;;12.98;6.68;;;;;;;;;;6183421;23;20330;-64
2021/11/09 02:16:42;;;;;;;14.27;6.18;;;;;;;;;;6181955;23;20075;-64
2021/11/09 02:19:08;;;;;;;12.38;6.07;;;;;;;;;;6182173;23;20039;-64
2021/11/09 02:21:35;;;;;;;13.32;6.00;;;;;;;;;;6182626;23;20004;-64
2021/11/09 02:24:03;;;;;;;15.55;6.10;;;;;;;;;;6183185;23;20101;-64
2021/11/09 02:26:36;;;;;;;12.75;5.10;;;;;;;;;;6183181;23;20008;-64
2021/11/09 02:29:04;;;;;;;18.65;6.60;;;;;;;;;;6183955;23;20021;-64
2021/11/09 02:31:30;;;;;;;10.95;6.00;;;;;;;;;;6183220;23;20008;-64
2021/11/09 02:33:56;;;;;;;12.27;5.82;;;;;;;;;;6150980;23;20017;-64
2021/11/09 02:36:22;;;;;;;12.70;5.30;;;;;;;;;;6175284;23;20013;-64
2021/11/09 02:38:48;;;;;;;14.60;6.00;;;;;;;;;;6180373;23;20460;-64
2021/11/09 02:41:15;;;;;;;16.63;5.70;;;;;;;;;;6181869;23;20058;-64
2021/11/09 02:43:41;;;;;;;14.15;5.88;;;;;;;;;;6180288;23;20092;-64
2021/11/09 02:51:36;;;;;;;13.25;5.57;;;;;;;;;;6175846;23;20655;-64
2021/11/09 02:57:01;;;;;;;15.60;6.07;;;;;;;;;;6191556;23;20488;-64
2021/11/09 02:59:54;;;;;;;13.20;6.43;;;;;;;;;;6178543;23;20073;-64
2021/11/09 03:02:50;;;;;;;12.32;5.88;;;;;;;;;;6181481;23;20001;-64
2021/11/09 03:11:01;;;;;;;12.77;5.93;;;;;;;;;;6180890;23;20486;-64
2021/11/09 03:13:42;;;;;;;11.13;6.13;;;;;;;;;;6182481;23;20232;-64
2021/11/09 03:16:11;;;;;;;13.88;5.70;;;;;;;;;;6153597;23;20001;-64
2021/11/09 03:18:46;;;;;;;15.75;5.93;;;;;;;;;;6179696;23;20032;-64
2021/11/09 03:40:37;;;;;;;13.70;6.15;;;;;;;;;;6178675;23;20015;-64
2021/11/09 03:45:56;;;;;;;17.50;6.78;;;;;;;;;;6181336;23;20019;-64
2021/11/09 03:48:22;;;;;;;19.48;6.45;;;;;;;;;;6156685;23;20431;-64
2021/11/09 03:50:49;;;;;;;13.73;5.88;;;;;;;;;;6181223;23;20009;-64
2021/11/09 03:53:21;;;;;;;13.25;6.03;;;;;;;;;;6153588;23;20340;-64
2021/11/09 03:58:24;;;;;;;14.25;5.97;;;;;;;;;;6191907;23;20017;-64
2021/11/09 04:05:49;;;;;;;13.75;6.10;;;;;;;;;;6192330;23;20005;-64
2021/11/09 04:08:34;;;;;;;15.27;6.50;;;;;;;;;;6179173;23;20052;-64
2021/11/09 04:11:23;;;;;;;12.90;5.93;;;;;;;;;;6178254;23;20009;-64
2021/11/09 04:27:10;;;;;;;16.42;6.70;;;;;;;;;;6185752;23;20013;-64
2021/11/09 04:29:53;;;;;;;14.98;6.40;;;;;;;;;;6174205;23;20064;-64
2021/11/09 05:11:03;;;;;;;12.43;6.93;;;;;;;;;;6178847;23;20085;-64
2021/11/09 05:13:35;;;;;;;18.58;10.00;;;;;;;;;;6182449;23;20009;-64
2021/11/09 05:16:02;;;;;;;13.88;7.53;;;;;;;;;;6181426;23;20072;-64
2021/11/09 05:18:27;;;;;;;17.52;7.20;;;;;;;;;;6180016;23;20005;-64
2021/11/09 05:20:53;;;;;;;15.07;6.90;;;;;;;;;;6150755;23;20011;-64
2021/11/09 05:23:18;;;;;;;16.63;6.88;;;;;;;;;;6176663;23;20001;-64
2021/11/09 05:25:44;;;;;;;14.98;6.47;;;;;;;;;;6153996;23;20005;-64
2021/11/09 05:28:10;;;;;;;13.95;6.85;;;;;;;;;;6180298;23;20016;-64
2021/11/09 05:30:39;;;;;;;13.05;5.97;;;;;;;;;;6154751;23;20386;-64
2021/11/09 05:33:06;;;;;;;13.27;6.00;;;;;;;;;;6176182;23;20068;-64
2021/11/09 05:35:33;;;;;;;15.07;6.93;;;;;;;;;;6180771;23;20000;-64
2021/11/09 05:38:00;;;;;;;;;;;;;;;;;;6180754;23;20013;-64
2021/11/09 05:40:37;;;;;;;16.48;6.00;;;;;;;;;;6165575;23;19904;-64
2021/11/09 05:43:06;;;;;;;13.02;5.78;;;;;;;;;;6175509;23;20009;-64
2021/11/09 05:45:33;;;;;;;16.45;6.25;;;;;;;;;;6174987;23;20041;-64
2021/11/09 05:47:59;;;;;;;13.60;6.50;;;;;;;;;;6174492;23;20009;-64
2021/11/09 05:50:25;;;;;;;15.07;6.82;;;;;;;;;;6168077;23;20008;-64
2021/11/09 05:52:52;;;;;;;18.83;8.07;;;;;;;;;;6172718;23;20081;-63
2021/11/09 05:55:19;;;;;;;21.48;6.88;;;;;;;;;;6142566;23;20071;-65
2021/11/09 05:57:45;;;;;;;18.13;6.68;;;;;;;;;;6147183;23;20092;-65
2021/11/09 06:00:12;;;;;;;17.10;6.13;;;;;;;;;;6174022;23;20009;-65
2021/11/09 06:02:39;;;;;;;21.67;6.75;;;;;;;;;;6173459;23;20016;-65
2021/11/09 06:05:08;;;;;;;17.10;6.03;;;;;;;;;;6143478;23;20472;-65
2021/11/09 06:07:34;;;;;;;14.40;6.72;;;;;;;;;;6150324;23;20051;-65
2021/11/09 06:10:00;;;;;;;19.55;6.82;;;;;;;;;;6173804;23;20001;-65
2021/11/09 06:12:38;;;;;;;19.40;6.63;;;;;;;;;;6172762;23;20009;-65
2021/11/09 06:15:09;;;;;;;17.45;6.38;;;;;;;;;;6171395;23;20439;-65
2021/11/09 06:17:41;;;;;;;14.57;7.13;;;;;;;;;;6172298;23;20005;-65
2021/11/09 06:20:06;;;;;;;19.30;6.63;;;;;;;;;;6174575;23;20330;-65
2021/11/09 06:22:41;;;;;;;17.67;7.03;;;;;;;;;;6176281;23;20379;-65
2021/11/09 06:28:29;;;;;;;18.35;7.38;;;;;;;;;;6168993;23;20071;-64
2021/11/09 06:31:03;;;;;;;16.67;8.07;;;;;;;;;;6174229;23;20418;-65
2021/11/09 06:33:30;;;;;;;21.52;8.50;;;;;;;;;;6170433;23;20673;-65
2021/11/09 06:35:56;;;;;;;15.57;8.82;;;;;;;;;;6176409;23;20066;-65
2021/11/09 06:38:21;;;;;;;18.63;7.25;;;;;;;;;;6173277;23;20001;-65
2021/11/09 06:40:47;;;;;;;15.77;6.28;;;;;;;;;;6178571;23;20009;-65
2021/11/09 06:43:12;;;;;;;36.22;23.38;;;;;;;;;;6179831;23;20028;-65
2021/11/09 06:45:39;;;;;;;28.42;17.50;;;;;;;;;;6152611;23;20001;-65
2021/11/09 06:48:05;;;;;;;18.90;12.52;;;;;;;;;;6178335;23;20768;-65
2021/11/09 06:50:30;;;;;;;23.27;11.82;;;;;;;;;;6152047;23;20335;-66
2021/11/09 06:52:57;;;;;;;16.23;7.13;;;;;;;;;;6173828;23;20005;-66
2021/11/09 06:55:22;;;;;;;17.40;6.72;;;;;;;;;;6146710;23;20001;-66
2021/11/09 06:57:48;;;;;;;15.85;6.82;;;;;;;;;;6176346;23;20001;-66
2021/11/09 07:00:17;;;;;;;17.45;7.28;;;;;;;;;;6174584;23;20004;-66
2021/11/09 07:02:43;;;;;;;19.45;6.57;;;;;;;;;;6175565;23;20155;-66
2021/11/09 07:05:09;;;;;;;15.93;6.40;;;;;;;;;;6172848;23;20117;-66
2021/11/09 07:07:36;;;;;;;15.68;6.85;;;;;;;;;;6175934;23;20005;-66
2021/11/09 07:10:05;;;;;;;18.55;8.65;;;;;;;;;;6168296;23;20012;-66
2021/11/09 07:12:31;;;;;;;18.83;7.45;;;;;;;;;;6174031;23;20430;-66
2021/11/09 07:14:57;;;;;;;16.20;7.30;;;;;;;;;;6150041;23;20015;-66
2021/11/09 07:17:22;;;;;;;17.75;6.60;;;;;;;;;;6173458;23;20016;-66
2021/11/09 07:19:51;;;;;;;14.18;6.70;;;;;;;;;;6171296;23;20009;-66
2021/11/09 07:22:18;;;;;;;17.35;6.72;;;;;;;;;;6161920;23;20009;-66
2021/11/09 07:24:44;;;;;;;17.33;8.18;;;;;;;;;;6175484;23;20032;-66
2021/11/09 07:27:09;;;;;;;15.55;6.63;;;;;;;;;;6173637;23;20327;-66
2021/11/09 07:29:35;;;;;;;11.93;6.68;;;;;;;;;;6174141;23;20575;-66
2021/11/09 07:32:00;;;;;;;12.00;6.57;;;;;;;;;;6179177;23;20084;-66
2021/11/09 07:34:26;;;;;;;18.10;6.70;;;;;;;;;;6181529;23;20449;-66
2021/11/09 07:36:52;;;;;;;15.93;6.75;;;;;;;;;;6183527;23;20008;-66
2021/11/09 07:39:20;;;;;;;16.33;7.00;;;;;;;;;;6178033;23;20092;-66
2021/11/09 07:41:47;;;;;;;14.23;6.80;;;;;;;;;;6176435;23;20012;-66
2021/11/09 07:44:13;;;;;;;16.52;6.95;;;;;;;;;;6180122;23;20324;-66
2021/11/09 07:46:39;;;;;;;16.63;6.88;;;;;;;;;;6180105;23;20431;-66
2021/11/09 07:49:05;;;;;;;17.75;7.18;;;;;;;;;;6154283;23;20012;-66
2021/11/09 07:51:32;;;;;;;15.48;7.43;;;;;;;;;;6181435;23;20375;-66
2021/11/09 07:53:59;;;;;;;17.35;7.32;;;;;;;;;;6177018;23;20009;-66
2021/11/09 07:56:30;;;;;;;;;;;;;;;;;;6178541;23;20004;-66
2021/11/09 08:01:32;;;;;;;14.10;7.30;;;;;;;;;;6191711;23;20040;-66
2021/11/09 08:06:30;;;;;;;18.05;7.03;;;;;;;;;;6190508;23;20005;-66
2021/11/09 08:09:21;;;;;;;15.20;6.70;;;;;;;;;;6181932;23;20490;-66
2021/11/09 08:11:48;;;;;;;14.13;6.85;;;;;;;;;;6181333;23;20419;-66
2021/11/09 08:14:14;;;;;;;18.83;7.53;;;;;;;;;;6175400;23;20001;-66
2021/11/09 08:16:41;;;;;;;15.63;7.53;;;;;;;;;;6152128;23;20485;-66
2021/11/09 08:19:07;;;;;;;18.20;7.80;;;;;;;;;;6176682;23;20019;-66
2021/11/09 08:21:35;;;;;;;15.07;7.80;;;;;;;;;;6150639;23;20008;-66
2021/11/09 08:24:01;;;;;;;20.17;8.20;;;;;;;;;;6176396;23;20088;-66
2021/11/09 08:26:27;;;;;;;16.43;8.03;;;;;;;;;;6153061;23;20004;-66
2021/11/09 08:28:55;;;;;;;19.33;8.00;;;;;;;;;;6180077;23;20027;-66
2021/11/09 08:31:23;;;;;;;15.50;7.78;;;;;;;;;;6178198;23;20004;-66
2021/11/09 08:33:49;;;;;;;20.02;8.05;;;;;;;;;;6180522;23;20439;-66
2021/11/09 08:36:22;;;;;;;20.83;8.20;;;;;;;;;;6175458;23;20079;-66
2021/11/09 08:38:48;;;;;;;12.68;7.40;;;;;;;;;;6178273;23;20315;-66
2021/11/09 08:41:13;;;;;;;16.90;7.63;;;;;;;;;;6180904;23;20043;-66
2021/11/09 08:43:42;;;;;;;11.75;7.80;;;;;;;;;;6181676;23;20012;-66
2021/11/09 08:46:19;;;;;;;18.38;8.55;;;;;;;;;;6175509;23;20191;-66
2021/11/09 08:48:48;;;;;;;17.98;9.25;;;;;;;;;;6181418;23;20048;-66
2021/11/09 08:51:16;;;;;;;19.92;10.20;;;;;;;;;;6176746;23;20012;-66
2021/11/09 08:53:45;;;;;;;16.55;8.07;;;;;;;;;;6173523;23;20001;-66
2021/11/09 09:06:38;;;;;;;19.65;8.35;;;;;;;;;;6180181;23;20107;-66
2021/11/09 09:09:05;;;;;;;18.00;8.23;;;;;;;;;;6175555;23;20009;-66
2021/11/09 09:11:31;;;;;;;18.27;7.78;;;;;;;;;;6177996;23;20012;-66
2021/11/09 09:13:58;;;;;;;15.30;8.45;;;;;;;;;;6179794;23;20012;-66
2021/11/09 09:16:24;;;;;;;16.65;8.38;;;;;;;;;;6178366;23;20012;-66
2021/11/09 09:18:49;;;;;;;16.63;8.30;;;;;;;;;;6177139;23;20015;-67
2021/11/09 09:21:22;;;;;;;17.08;7.82;;;;;;;;;;6179948;23;20355;-66
2021/11/09 09:23:52;;;;;;;16.27;9.13;;;;;;;;;;6177696;23;20013;-65
2021/11/09 09:32:29;;;;;;;19.83;8.80;;;;;;;;;;6154714;23;20392;-65
2021/11/09 09:56:15;;;;;;;18.45;10.00;;;;;;;;;;6155166;23;20009;-64
2021/11/09 09:58:40;;;;;;;22.00;10.93;;;;;;;;;;6145953;23;20021;-64
2021/11/09 10:01:06;;;;;;;18.10;10.30;;;;;;;;;;6148768;23;20006;-64
2021/11/09 10:03:36;;;;;;;19.15;11.30;;;;;;;;;;6147036;23;20064;-65
2021/11/09 10:06:03;;;;;;;18.55;11.43;;;;;;;;;;6147478;23;20009;-64
2021/11/09 10:08:47;;;;;;;19.00;11.33;;;;;;;;;;6148276;23;20475;-64
2021/11/09 10:11:36;;;;;;;26.48;12.73;;;;;;;;;;6146250;23;20315;-64
2021/11/09 10:14:03;;;;;;;17.95;11.95;;;;;;;;;;6148314;23;20413;-64
2021/11/09 10:16:29;;;;;;;18.10;11.70;;;;;;;;;;6147939;23;20012;-64
2021/11/09 10:18:54;;;;;;;23.23;11.65;;;;;;;;;;6146438;23;20010;-64
2021/11/09 10:21:20;;;;;;;21.55;12.15;;;;;;;;;;6148344;23;20031;-65
2021/11/09 10:23:47;;;;;;;23.75;12.35;;;;;;;;;;6148865;23;20121;-65
2021/11/09 10:26:16;;;;;;;24.33;11.82;;;;;;;;;;6147636;23;20013;-64
2021/11/09 10:28:43;;;;;;;17.50;11.23;;;;;;;;;;6147534;23;20016;-64
2021/11/09 10:31:11;;;;;;;22.80;11.35;;;;;;;;;;6121272;23;20013;-64
2021/11/09 10:33:41;;;;;;;22.17;11.30;;;;;;;;;;6167801;23;20418;-64
2021/11/09 10:36:36;;;;;;;19.88;10.52;;;;;;;;;;6177477;23;20005;-64
2021/11/09 10:39:18;;;;;;;19.38;11.10;;;;;;;;;;6145410;23;20005;-64
2021/11/09 10:42:12;;;;;;;20.50;11.63;;;;;;;;;;6180579;23;20076;-64
2021/11/09 10:44:40;;;;;;;18.45;10.85;;;;;;;;;;6182073;23;20037;-64
2021/11/09 10:47:34;;;;;;;19.60;11.43;;;;;;;;;;6180562;23;20423;-64
2021/11/09 10:50:26;;;;;;;20.73;11.23;;;;;;;;;;6147998;23;20009;-64
2021/11/09 10:53:31;;;;;;;18.95;9.75;;;;;;;;;;6181241;23;20025;-64
2021/11/09 11:06:25;;;;;;;17.63;10.30;;;;;;;;;;6193241;23;20017;-64
2021/11/09 11:09:13;;;;;;;17.25;9.43;;;;;;;;;;6181910;23;20086;-64
2021/11/09 11:11:50;;;;;;;15.73;9.75;;;;;;;;;;6182594;23;20001;-64
2021/11/09 11:14:31;;;;;;;20.08;9.93;;;;;;;;;;6181539;23;20001;-64
2021/11/09 11:17:02;;;;;;;16.17;10.30;;;;;;;;;;6182006;23;20128;-64
2021/11/09 11:19:33;;;;;;;19.83;9.93;;;;;;;;;;6147459;23;20406;-64
2021/11/09 11:22:03;;;;;;;19.35;10.98;;;;;;;;;;6177117;23;20009;-65
2021/11/09 11:24:29;;;;;;;21.98;10.48;;;;;;;;;;6174052;23;20015;-65
2021/11/09 11:26:58;;;;;;;16.50;10.67;;;;;;;;;;6152492;23;20008;-65
2021/11/09 11:29:27;;;;;;;18.23;10.93;;;;;;;;;;6178357;23;20012;-65
2021/11/09 11:31:54;;;;;;;21.08;10.15;;;;;;;;;;6181888;23;20607;-65
2021/11/09 11:34:21;;;;;;;16.83;9.73;;;;;;;;;;6155470;23;20013;-65
2021/11/09 11:36:48;;;;;;;16.65;9.77;;;;;;;;;;6183798;23;20000;-65
2021/11/09 11:39:17;;;;;;;16.83;9.07;;;;;;;;;;6154409;23;20005;-65
2021/11/09 11:41:45;;;;;;;18.23;9.32;;;;;;;;;;6183525;23;20001;-65
2021/11/09 11:44:19;;;;;;;21.58;10.10;;;;;;;;;;6181458;23;20001;-65
2021/11/09 11:46:47;;;;;;;17.80;9.77;;;;;;;;;;6182661;23;20005;-65
2021/11/09 11:49:13;;;;;;;;;;;;;;;;;;6130534;23;20000;-65
2021/11/09 11:51:40;;;;;;;17.73;9.85;;;;;;;;;;6181817;23;20250;-65
2021/11/09 11:54:07;;;;;;;19.38;8.48;;;;;;;;;;6180459;23;20012;-65
2021/11/09 11:56:43;;;;;;;13.85;8.43;;;;;;;;;;6181459;23;20048;-65
2021/11/09 11:59:33;;;;;;;17.02;8.73;;;;;;;;;;6182189;23;20005;-65
2021/11/09 12:02:07;;;;;;;16.20;9.57;;;;;;;;;;6182964;23;20080;-65
2021/11/09 12:04:42;;;;;;;17.33;9.40;;;;;;;;;;6180428;23;20361;-65
2021/11/09 12:07:13;;;;;;;18.02;9.63;;;;;;;;;;6183799;23;20080;-65
2021/11/09 12:09:41;;;;;;;17.95;9.90;;;;;;;;;;6181695;23;20009;-65
2021/11/09 12:12:19;;;;;;;22.65;10.32;;;;;;;;;;6182961;23;20066;-65
2021/11/09 12:14:56;;;;;;;16.88;9.80;;;;;;;;;;6181375;23;20326;-65
2021/11/09 12:17:38;;;;;;;16.67;9.07;;;;;;;;;;6182811;23;20300;-65
2021/11/09 12:20:40;;;;;;;16.45;9.07;;;;;;;;;;6179952;23;20028;-65
2021/11/09 12:23:16;;;;;;;14.95;7.68;;;;;;;;;;6182781;23;20005;-65
2021/11/09 12:25:42;;;;;;;17.15;8.25;;;;;;;;;;6181740;23;20005;-65
2021/11/09 12:28:10;;;;;;;10.88;5.45;;;;;;;;;;6183632;23;20124;-65
2021/11/09 12:30:44;;;;;;;12.98;4.68;;;;;;;;;;6182555;23;20005;-65
2021/11/09 12:33:14;;;;;;;8.85;4.20;;;;;;;;;;6181974;23;20080;-65
2021/11/09 12:35:40;;;;;;;10.35;4.72;;;;;;;;;;6183216;23;20024;-65
2021/11/09 12:38:19;;;;;;;14.80;6.57;;;;;;;;;;6180843;23;20005;-65
2021/11/09 12:40:49;;;;;;;8.32;3.22;;;;;;;;;;6178558;23;20172;-65
2021/11/09 12:43:16;;;;;;;7.65;2.67;;;;;;;;;;6182104;23;20008;-65
2021/11/09 12:46:03;;;;;;;6.80;2.35;;;;;;;;;;6181387;23;20005;-65
2021/11/09 12:48:34;;;;;;;;;;;;;;;;;;6183074;23;20005;-65
2021/11/09 12:51:11;;;;;;;5.93;2.40;;;;;;;;;;6181571;23;19970;-65
2021/11/09 12:53:39;;;;;;;10.50;3.08;;;;;;;;;;6180726;23;20040;-65
2021/11/09 12:56:08;;;;;;;6.20;2.15;;;;;;;;;;6182142;23;20005;-65
2021/11/09 12:58:38;;;;;;;5.50;2.15;;;;;;;;;;6180336;23;20681;-65
2021/11/09 13:03:55;;;;;;;6.55;2.30;;;;;;;;;;6191668;23;20434;-65
2021/11/09 13:06:42;;;;;;;6.10;2.00;;;;;;;;;;6181018;23;20005;-65
2021/11/09 13:09:19;;;;;;;6.57;2.30;;;;;;;;;;6181689;23;20320;-65
2021/11/09 13:11:50;;;;;;;6.18;2.25;;;;;;;;;;6181874;23;20005;-65
2021/11/09 13:14:19;;;;;;;9.10;2.83;;;;;;;;;;6174347;23;20005;-65
2021/11/09 13:16:49;;;;;;;5.55;2.40;;;;;;;;;;6175505;23;20251;-65
2021/11/09 13:19:18;;;;;;;7.68;2.70;;;;;;;;;;6175965;23;20011;-65
2021/11/09 13:21:52;;;;;;;6.65;2.65;;;;;;;;;;6175786;23;20028;-65
2021/11/09 13:24:19;;;;;;;8.20;3.10;;;;;;;;;;6170541;23;20013;-65
2021/11/09 13:26:52;;;;;;;;;;;;;;;;;;6176458;23;20025;-65
2021/11/09 13:29:18;;;;;;;7.30;2.83;;;;;;;;;;6145975;23;19911;-65
2021/11/09 13:31:45;;;;;;;7.63;2.80;;;;;;;;;;6174612;23;20334;-65
2021/11/09 13:34:12;;;;;;;7.53;2.72;;;;;;;;;;6147277;23;20120;-65
2021/11/09 13:36:38;;;;;;;7.30;2.95;;;;;;;;;;6144827;23;20009;-65
2021/11/09 13:39:04;;;;;;;6.55;2.75;;;;;;;;;;6142907;23;20009;-65
2021/11/09 13:41:33;;;;;;;9.32;2.97;;;;;;;;;;6141303;23;20029;-65
2021/11/09 13:44:09;;;;;;;6.30;2.78;;;;;;;;;;6140373;23;20331;-65
2021/11/09 13:46:38;;;;;;;6.20;2.22;;;;;;;;;;6145775;23;20089;-65
2021/11/09 13:49:06;;;;;;;4.88;2.28;;;;;;;;;;6147319;23;20009;-65
2021/11/09 13:51:43;;;;;;;6.50;3.30;;;;;;;;;;6136352;23;20080;-65
2021/11/09 13:54:17;;;;;;;7.25;2.90;;;;;;;;;;6144478;23;20466;-65
2021/11/09 13:56:46;;;;;;;7.07;2.90;;;;;;;;;;6144312;23;20056;-65
2021/11/09 13:59:14;;;;;;;5.90;2.45;;;;;;;;;;6144382;23;20075;-65
2021/11/09 14:17:41;;;;;;;4.80;1.10;;;;;;;;;;6148924;23;20327;-65
2021/11/09 14:20:18;;;;;;;4.85;1.20;;;;;;;;;;6142067;23;20313;-65
2021/11/09 14:22:46;;;;;;;3.42;1.10;;;;;;;;;;6142605;23;20438;-65
2021/11/09 14:25:16;;;;;;;4.78;1.25;;;;;;;;;;6138883;23;20042;-65
2021/11/09 14:27:46;;;;;;;3.75;1.40;;;;;;;;;;6141972;23;20001;-65
2021/11/09 14:30:19;;;;;;;4.55;1.20;;;;;;;;;;6139010;23;20005;-65
2021/11/09 14:32:45;;;;;;;6.40;1.45;;;;;;;;;;6139992;23;20088;-65
2021/11/09 14:35:24;;;;;;;3.33;1.10;;;;;;;;;;6141927;23;20081;-65
2021/11/09 14:38:04;;;;;;;3.92;1.40;;;;;;;;;;6137027;23;20057;-65
2021/11/09 14:40:59;;;;;;;4.28;1.42;;;;;;;;;;6140725;23;20470;-65
2021/11/09 14:43:29;;;;;;;2.75;1.27;;;;;;;;;;6143121;23;20010;-66
2021/11/09 14:46:11;;;;;;;2.83;1.20;;;;;;;;;;6141933;23;20063;-66
2021/11/09 14:51:14;;;;;;;5.18;1.40;;;;;;;;;;6153241;23;20091;-66
2021/11/09 14:53:45;;;;;;;3.08;1.00;;;;;;;;;;6119826;23;20016;-66
2021/11/09 14:56:14;;;;;;;3.03;1.15;;;;;;;;;;6143935;23;20027;-65
2021/11/09 14:58:42;;;;;;;3.70;1.48;;;;;;;;;;6142529;23;20084;-65
2021/11/09 15:01:35;;;;;;;5.45;1.50;;;;;;;;;;6120640;23;20017;-65
2021/11/09 15:04:05;;;;;;;5.63;1.92;;;;;;;;;;6147784;23;20480;-65
2021/11/09 15:30:46;;;;;;;3.95;1.10;;;;;;;;;;6147405;23;20067;-65
2021/11/09 15:33:21;;;;;;;2.58;1.17;;;;;;;;;;6147138;23;20021;-65
2021/11/09 15:36:10;;;;;;;4.53;1.20;;;;;;;;;;6147328;23;20033;-65
2021/11/09 15:38:33;;;;;;;;;;;;;;;;;;6148685;23;20321;-65
2021/11/09 15:40:59;;;;;;;2.88;0.90;;;;;;;;;;6147680;23;19915;-65
2021/11/09 15:43:24;;;;;;;4.55;1.25;;;;;;;;;;6147772;23;20010;-65
2021/11/09 15:45:50;;;;;;;2.70;1.00;;;;;;;;;;6123034;23;20044;-65
2021/11/09 15:48:16;;;;;;;2.33;1.00;;;;;;;;;;6116328;23;20013;-65
2021/11/09 15:50:44;;;;;;;3.00;1.23;;;;;;;;;;6143776;23;20017;-65
2021/11/09 15:53:09;;;;;;;4.97;1.35;;;;;;;;;;6146407;23;20009;-65
2021/11/09 15:55:35;;;;;;;2.20;1.30;;;;;;;;;;6147958;23;20001;-65
2021/11/09 15:58:01;;;;;;;3.85;1.40;;;;;;;;;;6147893;23;20027;-65
2021/11/09 16:00:27;;;;;;;6.40;1.27;;;;;;;;;;6146972;23;20009;-64
2021/11/09 16:02:52;;;;;;;6.65;1.38;;;;;;;;;;6148210;23;20366;-65
2021/11/09 16:05:18;;;;;;;4.65;1.30;;;;;;;;;;6147849;23;20009;-65
2021/11/09 16:07:45;;;;;;;2.67;1.23;;;;;;;;;;6149200;23;20006;-65
2021/11/09 16:10:15;;;;;;;4.90;1.50;;;;;;;;;;6145198;23;20076;-65
2021/11/09 16:12:42;;;;;;;4.57;1.30;;;;;;;;;;6142759;23;20010;-67
2021/11/09 16:15:09;;;;;;;4.47;1.60;;;;;;;;;;6115853;23;20432;-67
2021/11/09 16:17:34;;;;;;;3.80;1.50;;;;;;;;;;6143061;23;20022;-64
2021/11/09 16:20:00;;;;;;;5.30;1.73;;;;;;;;;;6141957;23;20013;-64
2021/11/09 16:22:33;;;;;;;2.95;1.42;;;;;;;;;;6137450;23;20133;-64
2021/11/09 16:25:00;;;;;;;3.90;1.67;;;;;;;;;;6139783;23;20068;-64
2021/11/09 16:27:26;;;;;;;3.50;1.60;;;;;;;;;;6141237;23;20012;-64
2021/11/09 16:29:55;;;;;;;4.47;1.63;;;;;;;;;;6140564;23;20492;-64
2021/11/09 16:32:20;;;;;;;4.30;1.60;;;;;;;;;;6139978;23;20028;-63
2021/11/09 16:34:49;;;;;;;3.33;1.60;;;;;;;;;;6140312;23;20300;-63
2021/11/09 16:37:15;;;;;;;3.00;1.52;;;;;;;;;;6143736;23;20009;-63
2021/11/09 16:39:52;;;;;;;5.15;1.70;;;;;;;;;;6141076;23;20011;-63
2021/11/09 16:42:18;;;;;;;5.03;1.90;;;;;;;;;;6143717;23;20336;-63
2021/11/09 16:44:44;;;;;;;6.13;2.10;;;;;;;;;;6143257;23;20055;-64
2021/11/09 16:47:09;;;;;;;5.22;2.38;;;;;;;;;;6144594;23;20013;-63
2021/11/09 16:52:29;;;;;;;5.07;2.80;;;;;;;;;;4711957;27;10001386;-63
2021/11/09 17:00:17;;;;;;;4.47;2.20;;;;;;;;;;5051899;28;20025;-62
2021/11/09 17:11:56;;;;;;;7.32;3.90;;;;;;;;;;5055856;28;20440;-63
2021/11/09 18:22:00;;;;;;;12.82;7.57;;;;;;;;;;5041769;28;20274;-63
2021/11/09 18:24:27;;;;;;;8.52;6.47;;;;;;;;;;5036582;28;20028;-62
2021/11/09 18:26:53;;;;;;;11.85;6.80;;;;;;;;;;5039620;28;20351;-62
2021/11/09 18:29:21;;;;;;;11.77;6.88;;;;;;;;;;5031259;28;20036;-63
2021/11/09 18:31:47;;;;;;;13.60;8.60;;;;;;;;;;5036633;28;20021;-62
2021/11/09 18:34:12;;;;;;;15.60;8.90;;;;;;;;;;5035300;28;20365;-62
2021/11/09 18:36:40;;;;;;;14.82;8.75;;;;;;;;;;5037194;28;20063;-63
2021/11/09 18:39:06;;;;;;;14.27;8.43;;;;;;;;;;5037134;28;20032;-63
2021/11/09 18:41:31;;;;;;;12.98;7.55;;;;;;;;;;5045813;28;20021;-63
2021/11/09 18:43:58;;;;;;;11.38;7.20;;;;;;;;;;5045157;28;20036;-63
2021/11/09 18:46:25;;;;;;;13.00;6.93;;;;;;;;;;5045597;28;20078;-62
2021/11/09 18:48:56;;;;;;;10.98;6.25;;;;;;;;;;5042709;28;20036;-63
2021/11/09 18:51:28;;;;;;;11.07;7.10;;;;;;;;;;5045068;28;20056;-63
2021/11/09 18:53:55;;;;;;;12.93;7.72;;;;;;;;;;5043769;28;20025;-62
2021/11/09 18:56:21;;;;;;;9.63;6.35;;;;;;;;;;5044783;28;20033;-63
2021/11/09 18:58:47;;;;;;;10.55;6.53;;;;;;;;;;5045681;28;20035;-64
2021/11/09 19:01:13;;;;;;;12.60;6.20;;;;;;;;;;5044107;28;20498;-62
2021/11/09 19:03:40;;;;;;;9.13;5.57;;;;;;;;;;5044554;28;20031;-63
2021/11/09 19:06:05;;;;;;;9.03;5.30;;;;;;;;;;4699467;28;10000565;-63
2021/11/09 19:08:30;;;;;;;9.70;6.30;;;;;;;;;;5052802;28;20089;-62
2021/11/09 19:10:56;;;;;;;14.02;5.43;;;;;;;;;;5060314;28;20489;-62
2021/11/09 19:13:23;;;;;;;10.02;6.47;;;;;;;;;;5052872;28;20051;-62
2021/11/09 19:15:49;;;;;;;10.85;5.47;;;;;;;;;;5039737;28;20258;-63
2021/11/09 19:18:18;;;;;;;11.60;6.90;;;;;;;;;;5038842;28;20075;-62
2021/11/09 19:20:45;;;;;;;7.82;5.38;;;;;;;;;;5044574;28;20025;-63
2021/11/09 19:23:11;;;;;;;13.93;6.00;;;;;;;;;;5043449;28;20049;-62
2021/11/09 19:25:36;;;;;;;10.10;5.70;;;;;;;;;;5050946;28;20028;-62
2021/11/09 19:28:02;;;;;;;10.35;5.47;;;;;;;;;;5049687;28;20498;-62
2021/11/09 19:30:29;;;;;;;13.23;7.13;;;;;;;;;;5049375;28;20040;-61
2021/11/09 19:32:55;;;;;;;10.63;6.63;;;;;;;;;;5055473;28;20024;-63